Turnerville, Alabama
Current Conditions -  °F | °C
As of 8:06 PM on Sunday 21 Dec 2014 (Local Time) from KMOB Reporting Station
Haze Haze  
Wind Chill: 53°   Ceiling: 200
Heat Index: 53°   Visibility: 1.5mi
Dew Point: 53°   Wind: 3mph
Humidity: 100%   Direction: 70°ENE
Pressure: 30.02"   Gusts: NA
Location:  30.9846°N, 88.1229°W
Report Text: KMOB 220206Z 07003KT 1 1/2SM BR OVC002 12/12 A3002 RMK AO2 T01170117 $
Loading
Personal Weather Stations






























Interactive Weather Map New forecast layout! Learn more

10-Day Weather Forecast

Advertisements
Track Severe Weather on mobile